Погода Бударинона 2 недели

Западно-Казахстанская область, Казахстан

23 июля-05 августа
  • 23июля
    Сегодня
    +17°
    +26°
    Пасмурно, небольшой дождь
    ВремяПогодаТемператураВлажностьДавлениеВетер, м/сВероятность осадков
    02:00Небольшая облачность+22°C48 %753 мм2.3 м/с2 %
    05:00Практически безоблачно+20°C65 %753 мм2.0 м/с2 %
    08:00Пасмурно, сплошная облачность+21°C59 %754 мм2.1 м/с2 %
    11:00Пасмурно, сплошная облачность+25°C48 %754 мм3.7 м/с5 %
    14:00Пасмурно, небольшой дождь+23°C53 %754 мм2.8 м/с35 %
    17:00Пасмурно, небольшой дождь+25°C53 %753 мм1.9 м/с46 %
    20:00Практически безоблачно+25°C57 %753 мм2.5 м/с30 %
    23:00Небольшая облачность+22°C71 %753 мм2.0 м/с2 %
  • 24июля
    Среда
    +15°
    +19°
    Пасмурно, дождь
    ВремяПогодаТемператураВлажностьДавлениеВетер, м/сВероятность осадков
    02:00Небольшая облачность+20°C59 %752 мм3.8 м/с2 %
    05:00Облачно с прояснениями+18°C64 %752 мм4.0 м/с9 %
    08:00Пасмурно, небольшой дождь+17°C72 %751 мм3.6 м/с38 %
    11:00Пасмурно, дождь+18°C88 %751 мм4.0 м/с75 %
    14:00Пасмурно, дождь+19°C90 %749 мм6.0 м/с88 %
    17:00Пасмурно, дождь+18°C89 %749 мм5.8 м/с95 %
    20:00Пасмурно, дождь+17°C89 %748 мм5.4 м/с88 %
    23:00Пасмурно, ливень+17°C91 %747 мм5.1 м/с79 %
  • 25июля
    Четверг
    +12°
    +24°
    Облачно с прояснениями
    ВремяПогодаТемператураВлажностьДавлениеВетер, м/сВероятность осадков
    02:00Пасмурно, ливень+16°C91 %746 мм5.2 м/с67 %
    05:00Пасмурно, дождь+15°C93 %746 мм5.8 м/с62 %
    08:00Пасмурно, ливень+16°C86 %746 мм5.2 м/с51 %
    11:00Облачно с прояснениями+19°C59 %747 мм6.5 м/с42 %
    14:00Облачно с прояснениями+22°C40 %747 мм7.4 м/с7 %
    17:00Облачно с прояснениями+24°C32 %747 мм6.8 м/с7 %
    20:00Практически безоблачно+22°C35 %748 мм3.8 м/с11 %
    23:00Ясно и безоблачно+18°C46 %749 мм2.3 м/с2 %
  • 26июля
    Пятница
    +13°
    +23°
    Ясно и безоблачно
    ВремяПогодаТемператураВлажностьДавлениеВетер, м/сВероятность осадков
    02:00Ясно и безоблачно+15°C58 %749 мм2.4 м/с2 %
    05:00Ясно и безоблачно+13°C63 %750 мм3.1 м/с2 %
    08:00Ясно и безоблачно+16°C66 %751 мм3.9 м/с2 %
    11:00Ясно и безоблачно+20°C50 %751 мм4.9 м/с3 %
    14:00Ясно и безоблачно+22°C40 %752 мм5.2 м/с5 %
    17:00Практически безоблачно+22°C38 %752 мм5.0 м/с5 %
    20:00Практически безоблачно+21°C40 %752 мм3.5 м/с8 %
    23:00Ясно и безоблачно+19°C49 %754 мм3.1 м/с2 %
  • 27июля
    Суббота
    +15°
    +26°
    Облачно с прояснениями
    ВремяПогодаТемператураВлажностьДавлениеВетер, м/сВероятность осадков
    02:00Ясно и безоблачно+15°C67 %754 мм2.2 м/с2 %
    05:00Ясно и безоблачно+14°C76 %755 мм2.3 м/с2 %
    08:00Ясно и безоблачно+15°C64 %756 мм3.4 м/с2 %
    11:00Облачно с прояснениями+20°C37 %756 мм4.4 м/с2 %
    14:00Облачно с прояснениями+23°C28 %756 мм6.1 м/с2 %
    17:00Облачно с прояснениями+25°C26 %756 мм6.3 м/с2 %
    20:00Ясно и безоблачно+24°C30 %757 мм3.9 м/с2 %
    23:00Ясно и безоблачно+21°C43 %758 мм1.6 м/с2 %
Мы используем cookies
Соглашаюсь